Casar, North Carolina
Current Conditions -  °F | °C
As of 5:15 PM on Tuesday 25 Nov 2014 (Local Time) from KEHO Reporting Station
Scattered Clouds Scattered Clouds  
Wind Chill: 55°   Ceiling: Unl
Heat Index: 55°   Visibility: 10mi
Dew Point: 38°   Wind: 0mph
Humidity: 54%   Direction: NA
Pressure: 30.03"   Gusts: NA
Location:  35.51°N, 81.62°W
Report Text: KEHO 252215Z AUTO 00000KT 10SM SCT120 13/04 A3003 RMK AO2 T01250035
Loading
Personal Weather Stations






























Interactive Weather Map New forecast layout! Learn more

10-Day Weather Forecast

Advertisements
Track Severe Weather on mobile